createdAt,value
2022-08-12T00:01:13.600Z,99403.09
2022-08-12T00:04:00.182Z,99401.63
2022-08-12T00:06:47.521Z,99407.66
2022-08-12T00:09:34.236Z,99396.12
2022-08-12T00:12:21.559Z,99395.81
2022-08-12T00:15:08.909Z,99405.47
2022-08-12T00:17:55.150Z,99398.66
2022-08-12T00:20:42.180Z,99400.41
2022-08-12T00:23:28.607Z,99403.53
2022-08-12T00:26:23.155Z,99402.19
2022-08-12T00:29:12.634Z,99399.00
2022-08-12T00:32:01.028Z,99404.19
2022-08-12T00:34:51.939Z,99401.88
2022-08-12T00:37:40.964Z,99401.75
2022-08-12T00:40:29.842Z,99402.19
2022-08-12T00:42:58.470Z,99401.53
2022-08-12T00:45:26.511Z,99396.34
2022-08-12T00:47:54.625Z,99396.38
2022-08-12T00:50:23.301Z,99394.31
2022-08-12T00:52:52.673Z,99400.47
2022-08-12T00:55:21.542Z,99393.09
2022-08-12T00:57:50.878Z,99402.00
2022-08-12T01:00:24.210Z,99393.16
2022-08-12T01:02:57.643Z,99395.47
2022-08-12T01:05:45.363Z,99393.38
2022-08-12T01:08:32.170Z,99395.28
2022-08-12T01:11:18.358Z,99398.44
2022-08-12T01:13:50.440Z,99396.34
2022-08-12T01:16:22.809Z,99389.16
2022-08-12T01:18:53.305Z,99394.56
2022-08-12T01:21:26.743Z,99394.81
2022-08-12T01:24:30.159Z,99400.31
2022-08-12T01:27:01.509Z,99403.69
2022-08-12T01:29:33.521Z,99401.84
2022-08-12T01:32:08.992Z,99401.09
2022-08-12T01:34:39.586Z,99400.06
2022-08-12T01:37:09.452Z,99400.50
2022-08-12T01:40:34.649Z,99396.91
2022-08-12T01:42:32.678Z,99393.06
2022-08-12T01:45:02.252Z,99389.13
2022-08-12T01:47:49.988Z,99386.34
2022-08-12T01:50:23.698Z,99382.16
2022-08-12T01:52:54.220Z,99386.69
2022-08-12T01:55:25.189Z,99385.56
2022-08-12T01:58:14.484Z,99383.41
2022-08-12T02:00:54.803Z,99375.37
2022-08-12T02:04:08.030Z,99375.50
2022-08-12T02:07:00.602Z,99381.63
2022-08-12T02:10:49.541Z,99375.56
2022-08-12T02:13:14.679Z,99381.66
2022-08-12T02:15:49.836Z,99372.03
2022-08-12T02:18:17.479Z,99366.47
2022-08-12T02:21:02.299Z,99366.50
2022-08-12T02:23:31.488Z,99364.59
2022-08-12T02:26:04.851Z,99361.28
2022-08-12T02:28:32.859Z,99355.38
2022-08-12T02:31:06.570Z,99354.16
2022-08-12T02:33:35.387Z,99362.88
2022-08-12T02:36:05.328Z,99359.78
2022-08-12T02:38:34.031Z,99360.66
2022-08-12T02:41:03.901Z,99358.88
2022-08-12T02:43:51.941Z,99355.44
2022-08-12T02:46:28.043Z,99361.31
2022-08-12T02:49:01.430Z,99348.53
2022-08-12T02:51:39.321Z,99351.31
2022-08-12T02:54:07.858Z,99349.50
2022-08-12T02:56:37.959Z,99350.84
2022-08-12T02:59:07.151Z,99347.31
2022-08-12T03:01:47.753Z,99347.03
2022-08-12T03:04:26.911Z,99349.62
2022-08-12T03:07:05.109Z,99343.38
2022-08-12T03:10:03.540Z,99332.50
2022-08-12T03:12:25.212Z,99331.47
2022-08-12T03:14:55.291Z,99338.16
2022-08-12T03:17:30.511Z,99337.31
2022-08-12T03:20:10.228Z,99336.19
2022-08-12T03:22:42.425Z,99343.03
2022-08-12T03:25:16.283Z,99341.19
2022-08-12T03:27:49.943Z,99342.62
2022-08-12T03:30:19.328Z,99342.75
2022-08-12T03:32:49.019Z,99339.16
2022-08-12T03:35:40.118Z,99343.44
2022-08-12T03:38:16.213Z,99347.63
2022-08-12T03:41:25.230Z,99348.28
2022-08-12T03:44:25.716Z,99347.94
2022-08-12T03:47:21.918Z,99349.94
2022-08-12T03:50:09.580Z,99353.66
2022-08-12T03:52:55.815Z,99343.09
2022-08-12T03:55:42.489Z,99346.03
2022-08-12T03:58:29.003Z,99352.84
2022-08-12T04:00:58.770Z,99351.38
2022-08-12T04:03:45.698Z,99352.78
2022-08-12T04:06:15.009Z,99362.88
2022-08-12T04:08:43.848Z,99361.13
2022-08-12T04:11:32.199Z,99364.28
2022-08-12T04:14:08.468Z,99363.69
2022-08-12T04:16:36.639Z,99360.56
2022-08-12T04:19:05.919Z,99362.59
2022-08-12T04:21:34.196Z,99369.37
2022-08-12T04:24:02.709Z,99363.53
2022-08-12T04:26:30.999Z,99366.81
2022-08-12T04:28:59.470Z,99370.94
2022-08-12T04:31:37.979Z,99367.50
2022-08-12T04:34:08.420Z,99377.97
2022-08-12T04:36:38.700Z,99379.19
2022-08-12T04:39:09.100Z,99374.66
2022-08-12T04:41:38.104Z,99373.88
2022-08-12T04:44:27.569Z,99383.81
2022-08-12T04:46:56.207Z,99389.16
2022-08-12T04:49:24.417Z,99391.06
2022-08-12T04:51:53.705Z,99384.88
2022-08-12T04:54:27.901Z,99394.81
2022-08-12T04:57:03.262Z,99396.34
2022-08-12T04:59:48.116Z,99394.03
2022-08-12T05:02:21.134Z,99392.97
2022-08-12T05:04:55.848Z,99392.91
2022-08-12T05:07:24.429Z,99397.03
2022-08-12T05:10:00.569Z,99402.31
2022-08-12T05:12:34.719Z,99400.09
2022-08-12T05:15:02.869Z,99400.03
2022-08-12T05:17:47.149Z,99402.62
2022-08-12T05:20:20.850Z,99401.66
2022-08-12T05:22:53.277Z,99402.72
2022-08-12T05:25:25.938Z,99401.75
2022-08-12T05:27:58.741Z,99403.09
2022-08-12T05:30:28.729Z,99409.75
2022-08-12T05:32:59.888Z,99409.22
2022-08-12T05:35:28.489Z,99407.06
2022-08-12T05:38:14.889Z,99402.31
2022-08-12T05:40:43.349Z,99403.47
2022-08-12T05:43:11.670Z,99399.19
2022-08-12T05:45:44.278Z,99399.22
2022-08-12T05:48:13.469Z,99402.69
2022-08-12T05:50:42.364Z,99399.44
2022-08-12T05:53:10.180Z,99402.41
2022-08-12T05:55:38.316Z,99402.88
2022-08-12T05:58:07.896Z,99405.28
2022-08-12T06:00:36.429Z,99405.63
2022-08-12T06:03:06.242Z,99405.63
2022-08-12T06:05:43.243Z,99397.50
2022-08-12T06:08:24.180Z,99398.09
2022-08-12T06:10:52.320Z,99407.75
2022-08-12T06:13:27.942Z,99405.56
2022-08-12T06:15:57.398Z,99408.34
2022-08-12T06:18:29.654Z,99400.09
2022-08-12T06:21:01.889Z,99399.66
2022-08-12T06:23:30.598Z,99401.44
2022-08-12T06:25:59.277Z,99410.81
2022-08-12T06:28:28.251Z,99405.63
2022-08-12T06:31:24.405Z,99407.94
2022-08-12T06:33:59.593Z,99408.00
2022-08-12T06:36:33.850Z,99408.28
2022-08-12T06:39:01.988Z,99411.78
2022-08-12T06:42:04.921Z,99416.25
2022-08-12T06:44:36.700Z,99408.44
2022-08-12T06:47:04.368Z,99405.47
2022-08-12T06:49:36.874Z,99409.41
2022-08-12T06:52:05.154Z,99415.19
2022-08-12T06:54:33.389Z,99404.44
2022-08-12T06:57:04.669Z,99404.06
2022-08-12T06:59:35.691Z,99403.75
2022-08-12T07:02:03.475Z,99399.69
2022-08-12T07:04:37.792Z,99411.50
2022-08-12T07:07:10.458Z,99407.13
2022-08-12T07:10:07.088Z,99403.12
2022-08-12T07:12:29.009Z,99412.97
2022-08-12T07:14:58.406Z,99411.88
2022-08-12T07:17:36.425Z,99410.94
2022-08-12T07:20:06.810Z,99406.31
2022-08-12T07:22:34.719Z,99413.53
2022-08-12T07:25:21.289Z,99407.16
2022-08-12T07:27:53.871Z,99408.47
2022-08-12T07:30:23.262Z,99415.56
2022-08-12T07:32:51.828Z,99416.09
2022-08-12T07:35:20.541Z,99404.72
2022-08-12T07:37:50.583Z,99420.06
2022-08-12T07:40:19.421Z,99412.94
2022-08-12T07:42:47.299Z,99408.63
2022-08-12T07:45:15.460Z,99406.44
2022-08-12T07:47:43.760Z,99412.50
2022-08-12T07:50:14.050Z,99418.03
2022-08-12T07:52:44.452Z,99413.13
2022-08-12T07:55:13.631Z,99416.19
2022-08-12T07:57:53.511Z,99415.28
2022-08-12T08:00:22.034Z,99406.22
2022-08-12T08:02:50.530Z,99408.59
2022-08-12T08:05:19.735Z,99413.41
2022-08-12T08:07:47.623Z,99418.47
2022-08-12T08:10:16.821Z,99412.34
2022-08-12T08:12:58.948Z,99415.63
2022-08-12T08:16:00.757Z,99414.69
2022-08-12T08:18:26.196Z,99413.00
2022-08-12T08:20:57.099Z,99410.25
2022-08-12T08:23:46.470Z,99408.84
2022-08-12T08:26:16.629Z,99405.13
2022-08-12T08:28:44.485Z,99411.16
2022-08-12T08:31:14.494Z,99405.31
2022-08-12T08:34:09.460Z,99404.00
2022-08-12T08:36:30.583Z,99405.34
2022-08-12T08:38:59.038Z,99405.22
2022-08-12T08:42:14.156Z,99401.63
2022-08-12T08:44:39.721Z,99408.00
2022-08-12T08:47:09.234Z,99406.44
2022-08-12T08:49:38.230Z,99405.94
2022-08-12T08:52:07.722Z,99401.66
2022-08-12T08:54:37.840Z,99407.06
2022-08-12T08:57:08.542Z,99406.69
2022-08-12T08:59:36.640Z,99400.50
2022-08-12T09:02:04.779Z,99399.03
2022-08-12T09:05:12.131Z,99396.03
2022-08-12T09:07:51.777Z,99385.94
2022-08-12T09:10:30.495Z,99393.56
2022-08-12T09:13:23.218Z,99390.94
2022-08-12T09:15:59.401Z,99385.25
2022-08-12T09:18:33.272Z,99390.66
2022-08-12T09:30:11.626Z,99370.66
2022-08-12T09:32:55.969Z,99372.59
2022-08-12T09:35:07.141Z,99376.28
2022-08-12T09:37:58.953Z,99373.56
2022-08-12T09:41:01.690Z,99369.56
2022-08-12T09:43:38.019Z,99363.06
2022-08-12T09:46:25.477Z,99352.97
2022-08-12T09:48:56.765Z,99361.22
2022-08-12T09:51:37.733Z,99350.56
2022-08-12T09:54:34.191Z,99352.34
2022-08-12T09:58:05.711Z,99350.47
2022-08-12T10:00:17.195Z,99356.94
2022-08-12T10:02:45.528Z,99351.47
2022-08-12T10:05:20.565Z,99347.28
2022-08-12T10:07:48.590Z,99350.50
2022-08-12T10:10:24.598Z,99347.47
2022-08-12T10:13:37.440Z,99346.00
2022-08-12T10:16:18.767Z,99345.00
2022-08-12T10:18:56.465Z,99339.47
2022-08-12T10:21:37.590Z,99335.94
2022-08-12T10:24:20.285Z,99331.16
2022-08-12T10:27:08.066Z,99332.69
2022-08-12T10:30:38.427Z,99332.97
2022-08-12T10:32:44.133Z,99333.91
2022-08-12T10:35:15.907Z,99334.62
2022-08-12T10:38:39.228Z,99336.31
2022-08-12T10:40:37.671Z,99335.97
2022-08-12T10:43:24.741Z,99326.75
2022-08-12T10:45:53.930Z,99320.16
2022-08-12T10:48:33.924Z,99328.34
2022-08-12T10:52:03.875Z,99319.25
2022-08-12T10:54:00.334Z,99320.28
2022-08-12T10:56:34.249Z,99311.31
2022-08-12T10:59:05.510Z,99319.28
2022-08-12T11:04:18.849Z,99314.84
2022-08-12T11:04:41.484Z,99308.72
2022-08-12T11:08:35.166Z,99303.59
2022-08-12T11:10:02.823Z,99304.53
2022-08-12T11:12:56.223Z,99307.53
2022-08-12T11:15:32.972Z,99308.44
2022-08-12T11:18:17.841Z,99312.88
2022-08-12T11:20:48.559Z,99315.72
2022-08-12T11:23:25.633Z,99306.91
2022-08-12T11:26:07.395Z,99302.00
2022-08-12T11:28:37.207Z,99292.56
2022-08-12T11:31:09.930Z,99301.91
2022-08-12T11:34:04.590Z,99284.47
2022-08-12T11:36:30.598Z,99287.56
2022-08-12T11:38:58.819Z,99304.38
2022-08-12T11:41:34.895Z,99290.47
2022-08-12T11:44:35.837Z,99291.56
2022-08-12T11:46:54.519Z,99289.84
2022-08-12T11:49:31.436Z,99289.81
2022-08-12T11:52:02.147Z,99281.50
2022-08-12T11:54:31.128Z,99285.97
2022-08-12T11:57:02.272Z,99275.28
2022-08-12T12:02:21.482Z,99286.50
2022-08-12T12:04:52.654Z,99278.00
2022-08-12T12:08:36.169Z,99284.47
2022-08-12T12:10:14.644Z,99287.78
2022-08-12T12:12:50.011Z,99285.56
2022-08-12T12:15:25.424Z,99286.00
2022-08-12T12:18:07.148Z,99289.31
2022-08-12T12:20:35.520Z,99279.13
2022-08-12T12:23:04.158Z,99284.56
2022-08-12T12:25:59.485Z,99279.69
2022-08-12T12:28:36.891Z,99278.53
2022-08-12T12:31:15.220Z,99283.72
2022-08-12T12:33:58.369Z,99273.53
2022-08-12T12:36:30.193Z,99273.38
2022-08-12T12:38:59.965Z,99273.19
2022-08-12T12:42:41.769Z,99273.28
2022-08-12T12:44:26.088Z,99273.81
2022-08-12T12:47:29.250Z,99260.28
2022-08-12T12:49:54.415Z,99258.25
2022-08-12T12:52:26.878Z,99252.81
2022-08-12T12:54:55.938Z,99251.63
2022-08-12T12:57:58.810Z,99251.34
2022-08-12T13:00:17.765Z,99240.31
2022-08-12T13:02:55.620Z,99243.69
2022-08-12T13:05:28.277Z,99227.56
2022-08-12T13:08:01.260Z,99233.88
2022-08-12T13:10:36.843Z,99231.53
2022-08-12T13:14:06.439Z,99228.16
2022-08-12T13:15:59.324Z,99227.47
2022-08-12T13:18:31.637Z,99224.69
2022-08-12T13:21:00.041Z,99218.97
2022-08-12T13:23:36.207Z,99223.50
2022-08-12T13:26:05.113Z,99224.63
2022-08-12T13:28:33.043Z,99217.19
2022-08-12T13:31:00.883Z,99215.06
2022-08-12T13:34:28.479Z,99216.41
2022-08-12T13:36:20.694Z,99216.59
2022-08-12T13:38:54.325Z,99212.50
2022-08-12T13:41:35.825Z,99218.78
2022-08-12T13:44:06.925Z,99221.31
2022-08-12T13:46:41.030Z,99219.94
2022-08-12T13:49:17.452Z,99209.03
2022-08-12T13:51:54.379Z,99217.31
2022-08-12T13:54:22.606Z,99208.13
2022-08-12T13:56:51.523Z,99203.69
2022-08-12T13:59:24.840Z,99212.56
2022-08-12T14:01:56.655Z,99203.41
2022-08-12T14:04:25.205Z,99205.91
2022-08-12T14:06:55.558Z,99196.94
2022-08-12T14:09:23.465Z,99195.28
2022-08-12T14:11:59.306Z,99196.44
2022-08-12T14:14:31.317Z,99194.72
2022-08-12T14:17:08.287Z,99199.72
2022-08-12T14:19:48.562Z,99198.06
2022-08-12T14:22:26.106Z,99191.78
2022-08-12T14:24:54.376Z,99189.84
2022-08-12T14:28:03.591Z,99184.41
2022-08-12T14:30:29.082Z,99185.72
2022-08-12T14:33:03.410Z,99180.34
2022-08-12T14:35:41.006Z,99173.09
2022-08-12T14:38:24.216Z,99170.22
2022-08-12T14:41:00.178Z,99178.03
2022-08-12T14:43:58.990Z,99169.97
2022-08-12T14:46:23.538Z,99160.09
2022-08-12T14:48:53.329Z,99153.06
2022-08-12T14:52:44.082Z,99157.34
2022-08-12T14:57:20.525Z,99151.22
2022-08-12T15:00:07.467Z,99146.25
2022-08-12T15:02:38.336Z,99150.44
2022-08-12T15:05:08.270Z,99141.88
2022-08-12T15:07:48.846Z,99141.94
2022-08-12T15:10:25.119Z,99134.09
2022-08-12T15:13:07.392Z,99126.91
2022-08-12T15:15:43.991Z,99129.69
2022-08-12T15:18:21.609Z,99128.50
2022-08-12T15:20:55.599Z,99127.59
2022-08-12T15:23:29.241Z,99136.84
2022-08-12T15:26:11.582Z,99136.16
2022-08-12T15:28:53.880Z,99132.44
2022-08-12T15:31:28.332Z,99129.31
2022-08-12T15:34:12.168Z,99127.34
2022-08-12T15:36:54.262Z,99117.16
2022-08-12T15:39:23.170Z,99115.50
2022-08-12T15:41:55.477Z,99117.37
2022-08-12T15:44:38.337Z,99112.59
2022-08-12T15:47:10.827Z,99107.47
2022-08-12T15:49:54.418Z,99108.69
2022-08-12T15:52:29.210Z,99101.56
2022-08-12T15:55:06.012Z,99111.69
2022-08-12T15:57:34.945Z,99106.34
2022-08-12T16:00:07.260Z,99104.56
2022-08-12T16:02:47.341Z,99098.59
2022-08-12T16:06:12.799Z,99108.00
2022-08-12T16:08:19.762Z,99099.94
2022-08-12T16:10:53.284Z,99102.63
2022-08-12T16:13:25.425Z,99099.84
2022-08-12T16:16:22.704Z,99098.47
2022-08-12T16:18:56.438Z,99092.78
2022-08-12T16:21:51.622Z,99093.56
2022-08-12T16:24:14.455Z,99096.84
2022-08-12T16:26:45.210Z,99091.66
2022-08-12T16:29:24.666Z,99094.84
2022-08-12T16:31:54.515Z,99092.72
2022-08-12T16:34:25.666Z,99091.03
2022-08-12T16:37:13.833Z,99090.34
2022-08-12T16:39:59.779Z,99089.47
2022-08-12T16:42:28.949Z,99088.84
2022-08-12T16:45:01.937Z,99095.53
2022-08-12T16:47:57.639Z,99102.16
2022-08-12T16:50:30.944Z,99093.81
2022-08-12T16:53:02.435Z,99089.16
2022-08-12T16:55:42.257Z,99092.28
2022-08-12T16:58:28.510Z,99083.81
2022-08-12T17:01:03.050Z,99081.53
2022-08-12T17:03:36.610Z,99076.88
2022-08-12T17:06:09.802Z,99075.19
2022-08-12T17:08:38.683Z,99089.31
2022-08-12T17:11:17.938Z,99078.00
2022-08-12T17:13:53.225Z,99083.31
2022-08-12T17:16:24.126Z,99082.25
2022-08-12T17:18:59.588Z,99082.53
2022-08-12T17:21:40.638Z,99081.94
2022-08-12T17:24:21.750Z,99084.66
2022-08-12T17:26:54.061Z,99086.75
2022-08-12T17:29:24.188Z,99088.53
2022-08-12T17:32:03.021Z,99081.69
2022-08-12T17:34:52.493Z,99077.69
2022-08-12T17:37:20.284Z,99078.41
2022-08-12T17:40:15.396Z,99083.31
2022-08-12T17:42:48.442Z,99085.25
2022-08-12T17:45:20.150Z,99086.94
2022-08-12T17:48:01.312Z,99087.63
2022-08-12T17:50:38.149Z,99085.47
2022-08-12T17:53:08.092Z,99087.44
2022-08-12T17:55:47.458Z,99092.97
2022-08-12T17:58:35.829Z,99086.69
2022-08-12T18:01:10.931Z,99090.69
2022-08-12T18:03:58.296Z,99084.31
2022-08-12T18:06:32.180Z,99086.03
2022-08-12T18:09:09.358Z,99087.66
2022-08-12T18:12:05.070Z,99090.69
2022-08-12T18:14:40.925Z,99089.78
2022-08-12T18:17:10.148Z,99099.66
2022-08-12T18:20:03.608Z,99101.87
2022-08-12T18:22:39.409Z,99095.50
2022-08-12T18:26:12.730Z,99099.44
2022-08-12T18:28:12.322Z,99103.25
2022-08-12T18:30:53.003Z,99106.03
2022-08-12T18:33:25.558Z,99105.12
2022-08-12T18:35:55.646Z,99106.31
2022-08-12T18:38:25.791Z,99111.00
2022-08-12T18:41:21.759Z,99103.22
2022-08-12T18:43:59.833Z,99101.16
2022-08-12T18:46:46.918Z,99104.59
2022-08-12T18:49:23.722Z,99102.53
2022-08-12T18:52:04.690Z,99107.34
2022-08-12T18:54:52.880Z,99106.56
2022-08-12T18:58:07.267Z,99111.78
2022-08-12T19:00:21.034Z,99111.56
2022-08-12T19:02:53.340Z,99111.38
2022-08-12T19:05:23.711Z,99116.59
2022-08-12T19:08:12.080Z,99119.53
2022-08-12T19:10:42.329Z,99111.28
2022-08-12T19:13:39.600Z,99113.75
2022-08-12T19:16:12.722Z,99113.09
2022-08-12T19:18:44.535Z,99121.97
2022-08-12T19:21:16.603Z,99117.63
2022-08-12T19:24:08.888Z,99128.12
2022-08-12T19:26:37.870Z,99122.84
2022-08-12T19:29:08.315Z,99123.03
2022-08-12T19:31:58.883Z,99120.81
2022-08-12T19:38:02.602Z,99117.72
2022-08-12T19:40:31.784Z,99112.84
2022-08-12T19:43:17.823Z,99115.38
2022-08-12T19:45:57.846Z,99118.34
2022-08-12T19:48:32.836Z,99111.38
2022-08-12T19:51:09.188Z,99113.62
2022-08-12T19:53:57.803Z,99117.69
2022-08-12T19:56:28.346Z,99112.47
2022-08-12T19:59:19.148Z,99113.97
2022-08-12T20:02:02.488Z,99113.81
2022-08-12T20:04:39.291Z,99110.00
2022-08-12T20:07:23.475Z,99107.31
2022-08-12T20:09:54.173Z,99113.09
2022-08-12T20:12:30.956Z,99102.50
2022-08-12T20:15:05.228Z,99104.28
2022-08-12T20:17:36.259Z,99108.66
2022-08-12T20:20:19.112Z,99101.06
2022-08-12T20:22:48.648Z,99104.03
2022-08-12T20:25:18.368Z,99098.12
2022-08-12T20:28:04.853Z,99098.31
2022-08-12T20:30:52.446Z,99095.78
2022-08-12T20:33:50.349Z,99103.09
2022-08-12T20:36:41.722Z,99108.41
2022-08-12T20:39:23.471Z,99106.34
2022-08-12T20:41:58.804Z,99098.84
2022-08-12T20:44:27.034Z,99104.13
2022-08-12T20:47:18.289Z,99103.63
2022-08-12T20:49:54.983Z,99104.38
2022-08-12T20:52:29.118Z,99104.66
2022-08-12T20:54:58.282Z,99103.63
2022-08-12T20:57:37.954Z,99096.94
2022-08-12T21:00:16.265Z,99097.16
2022-08-12T21:02:50.038Z,99100.19
2022-08-12T21:05:41.264Z,99098.34
2022-08-12T21:08:27.902Z,99104.97
2022-08-12T21:10:58.976Z,99099.03
2022-08-12T21:13:27.463Z,99102.16
2022-08-12T21:16:01.272Z,99099.53
2022-08-12T21:18:30.654Z,99102.75
2022-08-12T21:20:59.525Z,99101.56
2022-08-12T21:23:30.888Z,99102.75
2022-08-12T21:26:16.123Z,99097.81
2022-08-12T21:28:58.827Z,99087.66
2022-08-12T21:32:39.687Z,99093.19
2022-08-12T21:34:26.228Z,99094.75
2022-08-12T21:37:13.264Z,99098.31
2022-08-12T21:39:56.477Z,99098.44
2022-08-12T21:42:27.770Z,99099.53
2022-08-12T21:45:45.778Z,99107.00
2022-08-12T21:47:46.363Z,99101.47
2022-08-12T21:50:14.237Z,99112.81
2022-08-12T21:52:42.573Z,99111.72
2022-08-12T21:55:18.404Z,99129.12
2022-08-12T21:57:53.290Z,99122.38
2022-08-12T22:00:33.507Z,99120.50
2022-08-12T22:04:01.929Z,99118.63
2022-08-12T22:06:20.279Z,99123.25
2022-08-12T22:09:03.972Z,99129.84
2022-08-12T22:11:42.052Z,99121.19
2022-08-12T22:14:21.395Z,99120.59
2022-08-12T22:16:53.632Z,99112.31
2022-08-12T22:19:22.863Z,99120.53
2022-08-12T22:21:53.813Z,99110.72
2022-08-12T22:24:27.076Z,99113.12
2022-08-12T22:27:08.042Z,99114.72
2022-08-12T22:30:06.959Z,99110.75
2022-08-12T22:32:38.894Z,99113.88
2022-08-12T22:35:29.295Z,99108.87
2022-08-12T22:38:10.774Z,99112.56
2022-08-12T22:40:45.997Z,99111.66
2022-08-12T22:43:35.309Z,99109.44
2022-08-12T22:46:09.899Z,99111.50
2022-08-12T22:48:37.659Z,99107.91
2022-08-12T22:51:20.308Z,99104.44
2022-08-12T22:53:53.832Z,99105.56
2022-08-12T22:56:31.021Z,99117.44
2022-08-12T22:59:02.861Z,99104.00
2022-08-12T23:01:51.982Z,99104.28
2022-08-12T23:04:27.994Z,99105.03
2022-08-12T23:06:59.559Z,99096.69
2022-08-12T23:09:44.747Z,99096.09
2022-08-12T23:12:39.205Z,99100.22
2022-08-12T23:15:09.703Z,99096.97
2022-08-12T23:17:40.450Z,99089.66
2022-08-12T23:20:11.068Z,99084.28
2022-08-12T23:22:40.203Z,99089.78
2022-08-12T23:25:18.673Z,99079.91
2022-08-12T23:28:06.411Z,99081.97
2022-08-12T23:31:04.579Z,99085.41
2022-08-12T23:34:01.818Z,99082.19
2022-08-12T23:36:31.673Z,99071.94
2022-08-12T23:40:13.941Z,99064.59
2022-08-12T23:42:17.867Z,99062.03
2022-08-12T23:44:52.597Z,99059.75
2022-08-12T23:47:23.207Z,99055.84
2022-08-12T23:49:57.959Z,99061.09
2022-08-12T23:52:28.532Z,99055.56
2022-08-12T23:55:24.202Z,99056.72
2022-08-12T23:58:20.653Z,99045.66
